sensor_id;sensor_type;location;lat;lon;timestamp;temperature;humidity
31133;DHT22;17779;50.942;4.026;2022-08-19T00:01:37;20.60;99.90
31133;DHT22;17779;50.942;4.026;2022-08-19T00:04:04;20.70;99.90
31133;DHT22;17779;50.942;4.026;2022-08-19T00:06:30;20.70;99.90
31133;DHT22;17779;50.942;4.026;2022-08-19T00:08:56;20.90;99.90
31133;DHT22;17779;50.942;4.026;2022-08-19T00:11:22;21.00;99.90
31133;DHT22;17779;50.942;4.026;2022-08-19T00:13:47;21.10;99.90
31133;DHT22;17779;50.942;4.026;2022-08-19T00:16:16;21.10;99.90
31133;DHT22;17779;50.942;4.026;2022-08-19T00:18:46;21.00;99.90
31133;DHT22;17779;50.942;4.026;2022-08-19T00:21:12;21.00;99.90
31133;DHT22;17779;50.942;4.026;2022-08-19T00:23:38;21.10;99.90
31133;DHT22;17779;50.942;4.026;2022-08-19T00:26:04;20.90;99.90
31133;DHT22;17779;50.942;4.026;2022-08-19T00:28:30;20.80;99.90
31133;DHT22;17779;50.942;4.026;2022-08-19T00:30:56;20.40;99.90
31133;DHT22;17779;50.942;4.026;2022-08-19T00:33:22;20.30;99.90
31133;DHT22;17779;50.942;4.026;2022-08-19T00:35:47;20.10;99.90
31133;DHT22;17779;50.942;4.026;2022-08-19T00:38:13;20.20;99.90
31133;DHT22;17779;50.942;4.026;2022-08-19T00:40:39;20.20;99.90
31133;DHT22;17779;50.942;4.026;2022-08-19T00:43:08;20.40;99.90
31133;DHT22;17779;50.942;4.026;2022-08-19T00:45:35;20.30;99.90
31133;DHT22;17779;50.942;4.026;2022-08-19T00:48:01;20.20;99.90
31133;DHT22;17779;50.942;4.026;2022-08-19T00:50:29;20.10;99.90
31133;DHT22;17779;50.942;4.026;2022-08-19T00:52:55;20.00;99.90
31133;DHT22;17779;50.942;4.026;2022-08-19T00:55:24;20.10;99.90
31133;DHT22;17779;50.942;4.026;2022-08-19T00:57:51;20.00;99.90
31133;DHT22;17779;50.942;4.026;2022-08-19T01:00:19;20.00;99.90
31133;DHT22;17779;50.942;4.026;2022-08-19T01:02:46;20.10;99.90
31133;DHT22;17779;50.942;4.026;2022-08-19T01:05:16;20.30;99.90
31133;DHT22;17779;50.942;4.026;2022-08-19T01:07:43;20.20;99.90
31133;DHT22;17779;50.942;4.026;2022-08-19T01:10:13;20.00;99.90
31133;DHT22;17779;50.942;4.026;2022-08-19T01:12:40;20.00;99.90
31133;DHT22;17779;50.942;4.026;2022-08-19T01:15:06;20.10;99.90
31133;DHT22;17779;50.942;4.026;2022-08-19T01:17:33;20.30;99.90
31133;DHT22;17779;50.942;4.026;2022-08-19T01:19:59;20.50;99.90
31133;DHT22;17779;50.942;4.026;2022-08-19T01:24:54;20.20;99.90
31133;DHT22;17779;50.942;4.026;2022-08-19T01:27:20;20.00;99.90
31133;DHT22;17779;50.942;4.026;2022-08-19T01:29:46;19.90;99.90
31133;DHT22;17779;50.942;4.026;2022-08-19T01:32:13;20.10;99.90
31133;DHT22;17779;50.942;4.026;2022-08-19T01:34:40;20.00;99.90
31133;DHT22;17779;50.942;4.026;2022-08-19T01:37:07;20.10;99.90
31133;DHT22;17779;50.942;4.026;2022-08-19T01:39:33;20.10;99.90
31133;DHT22;17779;50.942;4.026;2022-08-19T01:41:59;19.90;99.90
31133;DHT22;17779;50.942;4.026;2022-08-19T01:44:28;20.00;99.90
31133;DHT22;17779;50.942;4.026;2022-08-19T01:46:53;19.90;99.90
31133;DHT22;17779;50.942;4.026;2022-08-19T01:49:20;20.00;99.90
31133;DHT22;17779;50.942;4.026;2022-08-19T01:51:47;19.90;99.90
31133;DHT22;17779;50.942;4.026;2022-08-19T01:54:15;19.90;99.90
31133;DHT22;17779;50.942;4.026;2022-08-19T01:56:42;19.80;99.90
31133;DHT22;17779;50.942;4.026;2022-08-19T01:59:12;19.70;99.90
31133;DHT22;17779;50.942;4.026;2022-08-19T02:01:38;19.60;99.90
31133;DHT22;17779;50.942;4.026;2022-08-19T02:04:04;19.60;99.90
31133;DHT22;17779;50.942;4.026;2022-08-19T02:06:30;19.50;99.90
31133;DHT22;17779;50.942;4.026;2022-08-19T02:08:56;19.50;99.90
31133;DHT22;17779;50.942;4.026;2022-08-19T02:11:23;19.40;99.90
31133;DHT22;17779;50.942;4.026;2022-08-19T02:13:52;19.50;99.90
31133;DHT22;17779;50.942;4.026;2022-08-19T02:16:18;19.70;99.90
31133;DHT22;17779;50.942;4.026;2022-08-19T02:18:44;19.60;99.90
31133;DHT22;17779;50.942;4.026;2022-08-19T02:21:10;19.50;99.90
31133;DHT22;17779;50.942;4.026;2022-08-19T02:23:36;19.40;99.90
31133;DHT22;17779;50.942;4.026;2022-08-19T02:26:02;19.30;99.90
31133;DHT22;17779;50.942;4.026;2022-08-19T02:28:28;19.30;99.90
31133;DHT22;17779;50.942;4.026;2022-08-19T02:30:53;19.20;99.90
31133;DHT22;17779;50.942;4.026;2022-08-19T02:33:19;19.00;99.90
31133;DHT22;17779;50.942;4.026;2022-08-19T02:35:45;19.10;99.90
31133;DHT22;17779;50.942;4.026;2022-08-19T02:38:11;19.30;99.90
31133;DHT22;17779;50.942;4.026;2022-08-19T02:40:53;19.30;99.90
31133;DHT22;17779;50.942;4.026;2022-08-19T02:43:19;19.40;99.90
31133;DHT22;17779;50.942;4.026;2022-08-19T02:45:45;19.00;99.90
31133;DHT22;17779;50.942;4.026;2022-08-19T02:48:12;18.90;99.90
31133;DHT22;17779;50.942;4.026;2022-08-19T02:50:39;18.90;99.90
31133;DHT22;17779;50.942;4.026;2022-08-19T02:53:05;18.80;99.90
31133;DHT22;17779;50.942;4.026;2022-08-19T02:55:32;18.80;99.90
31133;DHT22;17779;50.942;4.026;2022-08-19T02:57:58;18.80;99.90
31133;DHT22;17779;50.942;4.026;2022-08-19T03:00:25;18.60;99.90
31133;DHT22;17779;50.942;4.026;2022-08-19T03:02:51;18.50;99.90
31133;DHT22;17779;50.942;4.026;2022-08-19T03:05:17;18.70;99.90
31133;DHT22;17779;50.942;4.026;2022-08-19T03:07:43;19.00;99.90
31133;DHT22;17779;50.942;4.026;2022-08-19T03:10:08;19.00;99.90
31133;DHT22;17779;50.942;4.026;2022-08-19T03:12:35;18.90;99.90
31133;DHT22;17779;50.942;4.026;2022-08-19T03:15:01;18.80;99.90
31133;DHT22;17779;50.942;4.026;2022-08-19T03:17:26;18.70;99.90
31133;DHT22;17779;50.942;4.026;2022-08-19T03:19:52;18.60;99.90
31133;DHT22;17779;50.942;4.026;2022-08-19T03:22:17;18.70;99.90
31133;DHT22;17779;50.942;4.026;2022-08-19T03:24:43;18.60;99.90
31133;DHT22;17779;50.942;4.026;2022-08-19T03:27:09;18.50;99.90
31133;DHT22;17779;50.942;4.026;2022-08-19T03:29:36;18.50;99.90
31133;DHT22;17779;50.942;4.026;2022-08-19T03:32:03;18.40;99.90
31133;DHT22;17779;50.942;4.026;2022-08-19T03:34:29;18.30;99.90
31133;DHT22;17779;50.942;4.026;2022-08-19T03:36:56;18.30;99.90
31133;DHT22;17779;50.942;4.026;2022-08-19T03:39:22;18.20;99.90
31133;DHT22;17779;50.942;4.026;2022-08-19T03:41:49;18.10;99.90
31133;DHT22;17779;50.942;4.026;2022-08-19T03:44:19;18.20;99.90
31133;DHT22;17779;50.942;4.026;2022-08-19T03:46:50;18.10;99.90
31133;DHT22;17779;50.942;4.026;2022-08-19T03:49:16;18.00;99.90
31133;DHT22;17779;50.942;4.026;2022-08-19T03:51:42;17.90;99.90
31133;DHT22;17779;50.942;4.026;2022-08-19T03:54:09;17.90;99.90
31133;DHT22;17779;50.942;4.026;2022-08-19T03:56:37;17.90;99.90
31133;DHT22;17779;50.942;4.026;2022-08-19T03:59:03;17.80;99.90
31133;DHT22;17779;50.942;4.026;2022-08-19T04:01:29;17.80;99.90
31133;DHT22;17779;50.942;4.026;2022-08-19T04:03:55;17.80;99.90
31133;DHT22;17779;50.942;4.026;2022-08-19T04:06:22;17.80;99.90
31133;DHT22;17779;50.942;4.026;2022-08-19T04:08:49;17.90;99.90
31133;DHT22;17779;50.942;4.026;2022-08-19T04:11:17;18.00;99.90
31133;DHT22;17779;50.942;4.026;2022-08-19T04:13:43;17.90;99.90
31133;DHT22;17779;50.942;4.026;2022-08-19T04:16:09;17.80;99.90
31133;DHT22;17779;50.942;4.026;2022-08-19T04:18:36;17.70;99.90
31133;DHT22;17779;50.942;4.026;2022-08-19T04:21:02;17.70;99.90
31133;DHT22;17779;50.942;4.026;2022-08-19T04:23:27;17.70;99.90
31133;DHT22;17779;50.942;4.026;2022-08-19T04:25:53;17.70;99.90
31133;DHT22;17779;50.942;4.026;2022-08-19T04:28:19;17.80;99.90
31133;DHT22;17779;50.942;4.026;2022-08-19T04:30:46;17.80;99.90
31133;DHT22;17779;50.942;4.026;2022-08-19T04:33:13;17.70;99.90
31133;DHT22;17779;50.942;4.026;2022-08-19T04:35:42;17.70;99.90
31133;DHT22;17779;50.942;4.026;2022-08-19T04:38:08;17.70;99.90
31133;DHT22;17779;50.942;4.026;2022-08-19T04:40:34;17.80;99.90
31133;DHT22;17779;50.942;4.026;2022-08-19T04:43:23;17.80;99.90
31133;DHT22;17779;50.942;4.026;2022-08-19T04:45:48;17.90;99.90
31133;DHT22;17779;50.942;4.026;2022-08-19T04:48:14;17.80;99.90
31133;DHT22;17779;50.942;4.026;2022-08-19T04:50:40;17.70;99.90
31133;DHT22;17779;50.942;4.026;2022-08-19T04:53:07;17.60;99.90
31133;DHT22;17779;50.942;4.026;2022-08-19T04:55:33;17.50;99.90
31133;DHT22;17779;50.942;4.026;2022-08-19T04:57:58;17.40;99.90
31133;DHT22;17779;50.942;4.026;2022-08-19T05:00:24;17.40;99.90
31133;DHT22;17779;50.942;4.026;2022-08-19T05:02:50;17.50;99.90
31133;DHT22;17779;50.942;4.026;2022-08-19T05:05:16;17.60;99.90
31133;DHT22;17779;50.942;4.026;2022-08-19T05:07:42;17.50;99.90
31133;DHT22;17779;50.942;4.026;2022-08-19T05:10:07;17.40;99.90
31133;DHT22;17779;50.942;4.026;2022-08-19T05:12:33;17.40;99.90
31133;DHT22;17779;50.942;4.026;2022-08-19T05:14:59;17.30;99.90
31133;DHT22;17779;50.942;4.026;2022-08-19T05:17:25;17.40;99.90
31133;DHT22;17779;50.942;4.026;2022-08-19T05:19:51;17.30;99.90
31133;DHT22;17779;50.942;4.026;2022-08-19T05:22:35;17.40;99.90
31133;DHT22;17779;50.942;4.026;2022-08-19T05:25:03;17.40;99.90
31133;DHT22;17779;50.942;4.026;2022-08-19T05:27:30;17.50;99.90
31133;DHT22;17779;50.942;4.026;2022-08-19T05:29:56;17.80;99.90
31133;DHT22;17779;50.942;4.026;2022-08-19T05:32:22;18.00;99.90
31133;DHT22;17779;50.942;4.026;2022-08-19T05:34:48;18.20;99.90
31133;DHT22;17779;50.942;4.026;2022-08-19T05:37:14;18.20;99.90
31133;DHT22;17779;50.942;4.026;2022-08-19T05:39:40;18.00;99.90
31133;DHT22;17779;50.942;4.026;2022-08-19T05:42:07;18.20;99.90
31133;DHT22;17779;50.942;4.026;2022-08-19T05:44:34;18.20;99.90
31133;DHT22;17779;50.942;4.026;2022-08-19T05:47:01;18.20;99.90
31133;DHT22;17779;50.942;4.026;2022-08-19T05:49:28;18.40;99.90
31133;DHT22;17779;50.942;4.026;2022-08-19T05:51:54;18.60;99.90
31133;DHT22;17779;50.942;4.026;2022-08-19T05:54:20;18.90;99.90
31133;DHT22;17779;50.942;4.026;2022-08-19T05:56:50;19.10;99.90
31133;DHT22;17779;50.942;4.026;2022-08-19T05:59:17;19.20;99.90
31133;DHT22;17779;50.942;4.026;2022-08-19T06:01:44;19.10;99.90
31133;DHT22;17779;50.942;4.026;2022-08-19T06:04:10;19.10;99.90
31133;DHT22;17779;50.942;4.026;2022-08-19T06:06:37;19.30;99.90
31133;DHT22;17779;50.942;4.026;2022-08-19T06:09:04;19.50;99.90
31133;DHT22;17779;50.942;4.026;2022-08-19T06:11:34;19.60;99.90
31133;DHT22;17779;50.942;4.026;2022-08-19T06:14:03;19.30;99.90
31133;DHT22;17779;50.942;4.026;2022-08-19T06:16:29;19.10;99.90
31133;DHT22;17779;50.942;4.026;2022-08-19T06:18:58;19.30;99.90
31133;DHT22;17779;50.942;4.026;2022-08-19T06:21:25;19.60;99.90
31133;DHT22;17779;50.942;4.026;2022-08-19T06:23:52;19.60;99.90
31133;DHT22;17779;50.942;4.026;2022-08-19T06:26:19;19.70;99.90
31133;DHT22;17779;50.942;4.026;2022-08-19T06:28:45;19.70;99.90
31133;DHT22;17779;50.942;4.026;2022-08-19T06:31:14;19.90;99.90
31133;DHT22;17779;50.942;4.026;2022-08-19T06:33:42;19.90;99.90
31133;DHT22;17779;50.942;4.026;2022-08-19T06:36:16;20.00;99.90
31133;DHT22;17779;50.942;4.026;2022-08-19T06:38:41;20.00;99.90
31133;DHT22;17779;50.942;4.026;2022-08-19T06:41:07;20.20;99.90
31133;DHT22;17779;50.942;4.026;2022-08-19T06:43:33;20.40;99.90
31133;DHT22;17779;50.942;4.026;2022-08-19T06:45:59;20.40;99.90
31133;DHT22;17779;50.942;4.026;2022-08-19T06:48:26;20.40;99.90
31133;DHT22;17779;50.942;4.026;2022-08-19T06:50:52;20.60;99.90
31133;DHT22;17779;50.942;4.026;2022-08-19T06:53:18;20.50;99.90
31133;DHT22;17779;50.942;4.026;2022-08-19T06:55:45;20.60;99.90
31133;DHT22;17779;50.942;4.026;2022-08-19T06:58:10;20.30;99.90
31133;DHT22;17779;50.942;4.026;2022-08-19T07:00:36;20.30;99.90
31133;DHT22;17779;50.942;4.026;2022-08-19T07:03:02;20.70;99.90
31133;DHT22;17779;50.942;4.026;2022-08-19T07:05:28;21.00;99.90
31133;DHT22;17779;50.942;4.026;2022-08-19T07:07:54;21.50;99.90
31133;DHT22;17779;50.942;4.026;2022-08-19T07:10:21;21.40;99.90
31133;DHT22;17779;50.942;4.026;2022-08-19T07:12:46;21.40;99.90
31133;DHT22;17779;50.942;4.026;2022-08-19T07:15:14;21.70;99.90
31133;DHT22;17779;50.942;4.026;2022-08-19T07:17:41;21.60;99.90
31133;DHT22;17779;50.942;4.026;2022-08-19T07:20:08;21.30;99.90
31133;DHT22;17779;50.942;4.026;2022-08-19T07:22:34;21.30;99.90
31133;DHT22;17779;50.942;4.026;2022-08-19T07:25:00;21.50;99.90
31133;DHT22;17779;50.942;4.026;2022-08-19T07:27:25;21.60;99.90
31133;DHT22;17779;50.942;4.026;2022-08-19T07:29:52;21.50;99.90
31133;DHT22;17779;50.942;4.026;2022-08-19T07:32:17;21.30;99.90
31133;DHT22;17779;50.942;4.026;2022-08-19T07:34:43;21.30;99.90
31133;DHT22;17779;50.942;4.026;2022-08-19T07:37:10;21.60;99.90
31133;DHT22;17779;50.942;4.026;2022-08-19T07:39:36;21.30;99.90
31133;DHT22;17779;50.942;4.026;2022-08-19T07:42:07;21.50;99.90
31133;DHT22;17779;50.942;4.026;2022-08-19T07:44:33;21.50;99.90
31133;DHT22;17779;50.942;4.026;2022-08-19T07:46:59;21.50;99.90
31133;DHT22;17779;50.942;4.026;2022-08-19T07:49:26;21.60;99.90
31133;DHT22;17779;50.942;4.026;2022-08-19T07:51:59;21.60;99.90
31133;DHT22;17779;50.942;4.026;2022-08-19T07:54:27;21.40;99.90
31133;DHT22;17779;50.942;4.026;2022-08-19T07:56:53;21.40;99.90
31133;DHT22;17779;50.942;4.026;2022-08-19T07:59:21;21.60;99.90
31133;DHT22;17779;50.942;4.026;2022-08-19T08:01:47;21.60;99.90
31133;DHT22;17779;50.942;4.026;2022-08-19T08:04:15;21.40;99.90
31133;DHT22;17779;50.942;4.026;2022-08-19T08:06:59;21.30;99.90
31133;DHT22;17779;50.942;4.026;2022-08-19T08:09:43;21.60;99.90
31133;DHT22;17779;50.942;4.026;2022-08-19T08:12:11;22.10;99.90
31133;DHT22;17779;50.942;4.026;2022-08-19T08:14:44;22.40;99.90
31133;DHT22;17779;50.942;4.026;2022-08-19T08:17:14;22.40;99.90
31133;DHT22;17779;50.942;4.026;2022-08-19T08:19:40;21.90;99.90
31133;DHT22;17779;50.942;4.026;2022-08-19T08:22:07;21.80;99.90
31133;DHT22;17779;50.942;4.026;2022-08-19T08:24:33;21.80;99.90
31133;DHT22;17779;50.942;4.026;2022-08-19T08:27:02;21.70;99.90
31133;DHT22;17779;50.942;4.026;2022-08-19T08:29:30;21.60;99.90
31133;DHT22;17779;50.942;4.026;2022-08-19T08:31:56;21.90;99.90
31133;DHT22;17779;50.942;4.026;2022-08-19T08:34:22;21.80;99.90
31133;DHT22;17779;50.942;4.026;2022-08-19T08:36:47;22.00;99.90
31133;DHT22;17779;50.942;4.026;2022-08-19T08:39:15;22.10;99.90
31133;DHT22;17779;50.942;4.026;2022-08-19T08:46:55;22.30;99.90
31133;DHT22;17779;50.942;4.026;2022-08-19T08:49:31;22.70;99.90
31133;DHT22;17779;50.942;4.026;2022-08-19T08:52:00;22.50;99.90
31133;DHT22;17779;50.942;4.026;2022-08-19T08:54:37;22.20;99.90
31133;DHT22;17779;50.942;4.026;2022-08-19T08:57:07;22.40;99.90
31133;DHT22;17779;50.942;4.026;2022-08-19T08:59:36;22.30;99.90
31133;DHT22;17779;50.942;4.026;2022-08-19T09:02:03;22.30;99.90
31133;DHT22;17779;50.942;4.026;2022-08-19T09:04:30;22.40;99.90
31133;DHT22;17779;50.942;4.026;2022-08-19T09:07:13;22.60;99.90
31133;DHT22;17779;50.942;4.026;2022-08-19T09:09:45;22.30;99.90
31133;DHT22;17779;50.942;4.026;2022-08-19T09:15:06;22.10;99.90
31133;DHT22;17779;50.942;4.026;2022-08-19T09:17:33;22.40;99.90
31133;DHT22;17779;50.942;4.026;2022-08-19T09:22:35;22.40;99.90
31133;DHT22;17779;50.942;4.026;2022-08-19T09:25:02;22.50;99.90
31133;DHT22;17779;50.942;4.026;2022-08-19T09:27:28;22.80;99.90
31133;DHT22;17779;50.942;4.026;2022-08-19T09:29:55;22.70;99.90
31133;DHT22;17779;50.942;4.026;2022-08-19T09:32:22;23.00;99.90
31133;DHT22;17779;50.942;4.026;2022-08-19T09:34:49;22.80;99.90
31133;DHT22;17779;50.942;4.026;2022-08-19T09:37:14;22.60;99.90
31133;DHT22;17779;50.942;4.026;2022-08-19T09:39:40;22.50;99.90
31133;DHT22;17779;50.942;4.026;2022-08-19T09:42:07;22.80;99.90
31133;DHT22;17779;50.942;4.026;2022-08-19T09:44:40;22.80;99.90
31133;DHT22;17779;50.942;4.026;2022-08-19T09:47:06;22.70;99.90
31133;DHT22;17779;50.942;4.026;2022-08-19T09:49:32;22.60;99.90
31133;DHT22;17779;50.942;4.026;2022-08-19T09:51:58;22.50;99.90
31133;DHT22;17779;50.942;4.026;2022-08-19T09:54:24;22.40;99.90
31133;DHT22;17779;50.942;4.026;2022-08-19T09:56:51;22.60;99.90
31133;DHT22;17779;50.942;4.026;2022-08-19T09:59:16;22.60;99.90
31133;DHT22;17779;50.942;4.026;2022-08-19T10:01:42;22.80;99.90
31133;DHT22;17779;50.942;4.026;2022-08-19T10:04:07;22.60;99.90
31133;DHT22;17779;50.942;4.026;2022-08-19T10:06:34;22.80;99.90
31133;DHT22;17779;50.942;4.026;2022-08-19T10:08:59;23.00;99.90
31133;DHT22;17779;50.942;4.026;2022-08-19T10:11:25;23.20;99.90
31133;DHT22;17779;50.942;4.026;2022-08-19T10:13:51;23.50;99.90
31133;DHT22;17779;50.942;4.026;2022-08-19T10:16:18;23.20;99.90
31133;DHT22;17779;50.942;4.026;2022-08-19T10:18:45;23.00;99.90
31133;DHT22;17779;50.942;4.026;2022-08-19T10:21:12;22.70;99.90
31133;DHT22;17779;50.942;4.026;2022-08-19T10:23:42;23.10;99.90
31133;DHT22;17779;50.942;4.026;2022-08-19T10:26:15;23.10;99.90
31133;DHT22;17779;50.942;4.026;2022-08-19T10:31:10;22.90;99.90
31133;DHT22;17779;50.942;4.026;2022-08-19T10:33:40;23.30;99.90
31133;DHT22;17779;50.942;4.026;2022-08-19T10:36:08;23.70;99.90
31133;DHT22;17779;50.942;4.026;2022-08-19T10:38:35;23.90;99.90
31133;DHT22;17779;50.942;4.026;2022-08-19T10:41:34;24.20;99.90
31133;DHT22;17779;50.942;4.026;2022-08-19T10:43:53;24.10;99.90
31133;DHT22;17779;50.942;4.026;2022-08-19T10:46:20;24.10;99.90
31133;DHT22;17779;50.942;4.026;2022-08-19T10:48:46;23.80;99.90
31133;DHT22;17779;50.942;4.026;2022-08-19T10:51:12;23.60;99.90
31133;DHT22;17779;50.942;4.026;2022-08-19T10:53:56;23.70;99.90
31133;DHT22;17779;50.942;4.026;2022-08-19T10:56:25;23.80;99.90
31133;DHT22;17779;50.942;4.026;2022-08-19T10:59:10;24.20;99.90
31133;DHT22;17779;50.942;4.026;2022-08-19T11:01:39;24.50;99.90
31133;DHT22;17779;50.942;4.026;2022-08-19T11:04:05;24.30;99.90
31133;DHT22;17779;50.942;4.026;2022-08-19T11:06:34;25.10;99.90
31133;DHT22;17779;50.942;4.026;2022-08-19T11:08:59;25.50;99.90
31133;DHT22;17779;50.942;4.026;2022-08-19T11:13:57;26.90;99.90
31133;DHT22;17779;50.942;4.026;2022-08-19T11:16:25;26.80;99.90
31133;DHT22;17779;50.942;4.026;2022-08-19T11:18:52;26.10;99.90
31133;DHT22;17779;50.942;4.026;2022-08-19T11:23:45;26.00;99.90
31133;DHT22;17779;50.942;4.026;2022-08-19T11:26:13;25.70;99.90
31133;DHT22;17779;50.942;4.026;2022-08-19T11:28:39;25.90;99.90
31133;DHT22;17779;50.942;4.026;2022-08-19T11:31:09;25.50;99.90
31133;DHT22;17779;50.942;4.026;2022-08-19T11:33:35;25.40;99.90
31133;DHT22;17779;50.942;4.026;2022-08-19T11:36:01;25.70;99.90
31133;DHT22;17779;50.942;4.026;2022-08-19T11:38:27;25.10;99.90
31133;DHT22;17779;50.942;4.026;2022-08-19T11:40:54;24.70;99.90
31133;DHT22;17779;50.942;4.026;2022-08-19T11:43:19;24.90;99.90
31133;DHT22;17779;50.942;4.026;2022-08-19T11:45:46;25.00;99.90
31133;DHT22;17779;50.942;4.026;2022-08-19T11:48:14;25.10;99.90
31133;DHT22;17779;50.942;4.026;2022-08-19T11:50:40;25.40;99.90
31133;DHT22;17779;50.942;4.026;2022-08-19T11:53:08;25.60;99.90
31133;DHT22;17779;50.942;4.026;2022-08-19T11:55:38;25.60;99.90
31133;DHT22;17779;50.942;4.026;2022-08-19T11:58:05;25.90;99.90
31133;DHT22;17779;50.942;4.026;2022-08-19T12:00:33;25.90;99.90
31133;DHT22;17779;50.942;4.026;2022-08-19T12:05:29;25.80;99.90
31133;DHT22;17779;50.942;4.026;2022-08-19T12:07:54;25.80;99.90
31133;DHT22;17779;50.942;4.026;2022-08-19T12:10:21;25.70;99.90
31133;DHT22;17779;50.942;4.026;2022-08-19T12:12:47;25.80;99.90
31133;DHT22;17779;50.942;4.026;2022-08-19T12:15:13;25.90;99.90
31133;DHT22;17779;50.942;4.026;2022-08-19T12:17:40;25.50;99.90
31133;DHT22;17779;50.942;4.026;2022-08-19T12:20:07;25.60;99.90
31133;DHT22;17779;50.942;4.026;2022-08-19T12:22:35;26.10;99.90
31133;DHT22;17779;50.942;4.026;2022-08-19T12:25:01;26.10;99.90
31133;DHT22;17779;50.942;4.026;2022-08-19T12:27:26;26.40;99.90
31133;DHT22;17779;50.942;4.026;2022-08-19T12:29:53;26.50;99.90
31133;DHT22;17779;50.942;4.026;2022-08-19T12:32:19;26.30;99.90
31133;DHT22;17779;50.942;4.026;2022-08-19T12:34:44;26.40;99.90
31133;DHT22;17779;50.942;4.026;2022-08-19T12:37:12;25.90;99.90
31133;DHT22;17779;50.942;4.026;2022-08-19T12:39:39;25.50;99.90
31133;DHT22;17779;50.942;4.026;2022-08-19T12:42:06;26.10;99.90
31133;DHT22;17779;50.942;4.026;2022-08-19T12:44:34;26.90;99.90
31133;DHT22;17779;50.942;4.026;2022-08-19T12:47:01;26.90;99.90
31133;DHT22;17779;50.942;4.026;2022-08-19T12:49:28;27.20;99.90
31133;DHT22;17779;50.942;4.026;2022-08-19T12:51:54;26.80;99.90
31133;DHT22;17779;50.942;4.026;2022-08-19T12:54:20;26.20;99.90
31133;DHT22;17779;50.942;4.026;2022-08-19T12:56:45;25.60;99.90
31133;DHT22;17779;50.942;4.026;2022-08-19T12:59:11;25.10;99.90
31133;DHT22;17779;50.942;4.026;2022-08-19T13:01:37;25.10;99.90
31133;DHT22;17779;50.942;4.026;2022-08-19T13:04:03;25.10;99.90
31133;DHT22;17779;50.942;4.026;2022-08-19T13:06:29;25.10;99.90
31133;DHT22;17779;50.942;4.026;2022-08-19T13:08:55;25.10;99.90
31133;DHT22;17779;50.942;4.026;2022-08-19T13:11:22;26.30;99.90
31133;DHT22;17779;50.942;4.026;2022-08-19T13:13:50;27.00;99.90
31133;DHT22;17779;50.942;4.026;2022-08-19T13:16:17;27.40;99.90
31133;DHT22;17779;50.942;4.026;2022-08-19T13:18:44;27.00;99.90
31133;DHT22;17779;50.942;4.026;2022-08-19T13:21:12;26.70;99.90
31133;DHT22;17779;50.942;4.026;2022-08-19T13:23:38;26.80;99.90
31133;DHT22;17779;50.942;4.026;2022-08-19T13:26:05;26.80;99.90
31133;DHT22;17779;50.942;4.026;2022-08-19T13:28:31;26.80;99.90
31133;DHT22;17779;50.942;4.026;2022-08-19T13:31:18;26.60;99.90
31133;DHT22;17779;50.942;4.026;2022-08-19T13:34:03;26.20;99.90
31133;DHT22;17779;50.942;4.026;2022-08-19T13:36:29;26.60;99.90
31133;DHT22;17779;50.942;4.026;2022-08-19T13:38:55;26.50;99.90
31133;DHT22;17779;50.942;4.026;2022-08-19T13:41:22;26.60;99.90
31133;DHT22;17779;50.942;4.026;2022-08-19T13:43:47;26.30;99.90
31133;DHT22;17779;50.942;4.026;2022-08-19T13:46:14;25.80;99.90
31133;DHT22;17779;50.942;4.026;2022-08-19T13:48:40;25.60;99.90
31133;DHT22;17779;50.942;4.026;2022-08-19T13:51:08;25.20;99.90
31133;DHT22;17779;50.942;4.026;2022-08-19T13:53:36;24.90;99.90
31133;DHT22;17779;50.942;4.026;2022-08-19T13:56:07;24.50;99.90
31133;DHT22;17779;50.942;4.026;2022-08-19T13:58:33;24.20;99.90
31133;DHT22;17779;50.942;4.026;2022-08-19T14:00:59;23.80;99.90
31133;DHT22;17779;50.942;4.026;2022-08-19T14:03:25;23.60;99.90
31133;DHT22;17779;50.942;4.026;2022-08-19T14:05:51;23.70;99.90
31133;DHT22;17779;50.942;4.026;2022-08-19T14:08:17;24.10;99.90
31133;DHT22;17779;50.942;4.026;2022-08-19T14:10:43;24.60;99.90
31133;DHT22;17779;50.942;4.026;2022-08-19T14:13:10;24.80;99.90
31133;DHT22;17779;50.942;4.026;2022-08-19T14:15:38;25.10;99.90
31133;DHT22;17779;50.942;4.026;2022-08-19T14:18:03;25.50;99.90
31133;DHT22;17779;50.942;4.026;2022-08-19T14:20:29;25.40;99.90
31133;DHT22;17779;50.942;4.026;2022-08-19T14:22:55;25.40;99.90
31133;DHT22;17779;50.942;4.026;2022-08-19T14:25:22;25.40;99.90
31133;DHT22;17779;50.942;4.026;2022-08-19T14:27:48;25.50;99.90
31133;DHT22;17779;50.942;4.026;2022-08-19T14:30:17;25.90;99.90
31133;DHT22;17779;50.942;4.026;2022-08-19T14:32:43;25.50;99.90
31133;DHT22;17779;50.942;4.026;2022-08-19T14:35:09;25.50;99.90
31133;DHT22;17779;50.942;4.026;2022-08-19T14:37:35;26.00;99.90
31133;DHT22;17779;50.942;4.026;2022-08-19T14:40:02;26.10;99.90
31133;DHT22;17779;50.942;4.026;2022-08-19T14:42:28;26.30;99.90
31133;DHT22;17779;50.942;4.026;2022-08-19T14:44:57;26.20;99.90
31133;DHT22;17779;50.942;4.026;2022-08-19T14:47:22;26.20;99.90
31133;DHT22;17779;50.942;4.026;2022-08-19T14:49:48;25.90;99.90
31133;DHT22;17779;50.942;4.026;2022-08-19T14:52:13;25.60;99.90
31133;DHT22;17779;50.942;4.026;2022-08-19T14:54:39;25.30;99.90
31133;DHT22;17779;50.942;4.026;2022-08-19T14:57:11;25.40;99.90
31133;DHT22;17779;50.942;4.026;2022-08-19T14:59:36;25.70;99.90
31133;DHT22;17779;50.942;4.026;2022-08-19T15:02:03;25.80;99.90
31133;DHT22;17779;50.942;4.026;2022-08-19T15:04:29;25.80;99.90
31133;DHT22;17779;50.942;4.026;2022-08-19T15:06:54;26.00;99.90
31133;DHT22;17779;50.942;4.026;2022-08-19T15:09:20;26.20;99.90
31133;DHT22;17779;50.942;4.026;2022-08-19T15:11:46;25.80;99.90
31133;DHT22;17779;50.942;4.026;2022-08-19T15:14:11;25.70;99.90
31133;DHT22;17779;50.942;4.026;2022-08-19T15:16:39;25.70;99.90
31133;DHT22;17779;50.942;4.026;2022-08-19T15:19:09;25.90;99.90
31133;DHT22;17779;50.942;4.026;2022-08-19T15:21:35;25.80;99.90
31133;DHT22;17779;50.942;4.026;2022-08-19T15:24:02;26.10;99.90
31133;DHT22;17779;50.942;4.026;2022-08-19T15:26:28;26.50;99.90
31133;DHT22;17779;50.942;4.026;2022-08-19T15:28:57;26.50;99.90
31133;DHT22;17779;50.942;4.026;2022-08-19T15:31:23;26.10;99.90
31133;DHT22;17779;50.942;4.026;2022-08-19T15:33:48;26.10;99.90
31133;DHT22;17779;50.942;4.026;2022-08-19T15:36:15;26.30;99.90
31133;DHT22;17779;50.942;4.026;2022-08-19T15:38:42;26.10;99.90
31133;DHT22;17779;50.942;4.026;2022-08-19T15:41:21;26.20;99.90
31133;DHT22;17779;50.942;4.026;2022-08-19T15:46:17;25.90;99.90
31133;DHT22;17779;50.942;4.026;2022-08-19T15:48:43;25.60;99.90
31133;DHT22;17779;50.942;4.026;2022-08-19T15:51:09;25.60;99.90
31133;DHT22;17779;50.942;4.026;2022-08-19T15:53:35;25.80;99.90
31133;DHT22;17779;50.942;4.026;2022-08-19T15:56:00;25.60;99.90